sensor_id;sensor_type;location;lat;lon;timestamp;P1;durP1;ratioP1;P2;durP2;ratioP2
21036;SDS011;10677;50.942;4.028;2023-06-04T00:00:42;2.58;;;1.20;;
21036;SDS011;10677;50.942;4.028;2023-06-04T00:03:08;4.88;;;1.30;;
21036;SDS011;10677;50.942;4.028;2023-06-04T00:05:34;4.95;;;1.33;;
21036;SDS011;10677;50.942;4.028;2023-06-04T00:07:59;3.75;;;1.60;;
21036;SDS011;10677;50.942;4.028;2023-06-04T00:10:25;3.35;;;1.20;;
21036;SDS011;10677;50.942;4.028;2023-06-04T00:12:50;5.90;;;1.77;;
21036;SDS011;10677;50.942;4.028;2023-06-04T00:15:16;3.20;;;1.67;;
21036;SDS011;10677;50.942;4.028;2023-06-04T00:17:42;5.90;;;1.27;;
21036;SDS011;10677;50.942;4.028;2023-06-04T00:20:08;4.57;;;1.75;;
21036;SDS011;10677;50.942;4.028;2023-06-04T00:22:35;5.43;;;1.60;;
21036;SDS011;10677;50.942;4.028;2023-06-04T00:25:01;4.63;;;1.10;;
21036;SDS011;10677;50.942;4.028;2023-06-04T00:27:26;4.13;;;1.30;;
21036;SDS011;10677;50.942;4.028;2023-06-04T00:29:52;4.75;;;1.55;;
21036;SDS011;10677;50.942;4.028;2023-06-04T00:32:18;4.32;;;1.55;;
21036;SDS011;10677;50.942;4.028;2023-06-04T00:34:49;4.53;;;1.40;;
21036;SDS011;10677;50.942;4.028;2023-06-04T00:37:16;3.50;;;1.38;;
21036;SDS011;10677;50.942;4.028;2023-06-04T00:39:42;4.65;;;1.98;;
21036;SDS011;10677;50.942;4.028;2023-06-04T00:42:07;5.97;;;1.67;;
21036;SDS011;10677;50.942;4.028;2023-06-04T00:44:33;6.15;;;1.30;;
21036;SDS011;10677;50.942;4.028;2023-06-04T00:46:59;4.40;;;1.58;;
21036;SDS011;10677;50.942;4.028;2023-06-04T00:49:25;8.13;;;1.58;;
21036;SDS011;10677;50.942;4.028;2023-06-04T00:51:51;3.58;;;1.50;;
21036;SDS011;10677;50.942;4.028;2023-06-04T00:54:17;8.60;;;1.50;;
21036;SDS011;10677;50.942;4.028;2023-06-04T00:56:47;4.82;;;1.67;;
21036;SDS011;10677;50.942;4.028;2023-06-04T00:59:13;8.00;;;1.50;;
21036;SDS011;10677;50.942;4.028;2023-06-04T01:01:49;4.70;;;1.20;;
21036;SDS011;10677;50.942;4.028;2023-06-04T01:07:17;3.50;;;1.58;;
21036;SDS011;10677;50.942;4.028;2023-06-04T01:09:44;3.58;;;1.80;;
21036;SDS011;10677;50.942;4.028;2023-06-04T01:12:10;6.50;;;1.55;;
21036;SDS011;10677;50.942;4.028;2023-06-04T01:14:36;5.75;;;1.83;;
21036;SDS011;10677;50.942;4.028;2023-06-04T01:25:20;3.40;;;1.60;;
21036;SDS011;10677;50.942;4.028;2023-06-04T01:27:51;4.10;;;1.73;;
21036;SDS011;10677;50.942;4.028;2023-06-04T01:30:25;5.55;;;2.15;;
21036;SDS011;10677;50.942;4.028;2023-06-04T01:32:56;4.45;;;1.70;;
21036;SDS011;10677;50.942;4.028;2023-06-04T01:35:23;5.53;;;2.05;;
21036;SDS011;10677;50.942;4.028;2023-06-04T01:37:49;5.28;;;1.95;;
21036;SDS011;10677;50.942;4.028;2023-06-04T01:40:14;3.90;;;1.90;;
21036;SDS011;10677;50.942;4.028;2023-06-04T01:42:41;4.07;;;2.03;;
21036;SDS011;10677;50.942;4.028;2023-06-04T01:45:07;3.95;;;2.10;;
21036;SDS011;10677;50.942;4.028;2023-06-04T01:47:33;8.23;;;2.03;;
21036;SDS011;10677;50.942;4.028;2023-06-04T01:50:00;4.13;;;1.88;;
21036;SDS011;10677;50.942;4.028;2023-06-04T01:52:26;4.70;;;1.88;;
21036;SDS011;10677;50.942;4.028;2023-06-04T01:54:52;4.53;;;2.03;;
21036;SDS011;10677;50.942;4.028;2023-06-04T01:57:18;7.22;;;2.00;;
21036;SDS011;10677;50.942;4.028;2023-06-04T01:59:45;6.72;;;2.20;;
21036;SDS011;10677;50.942;4.028;2023-06-04T02:02:11;7.22;;;2.13;;
21036;SDS011;10677;50.942;4.028;2023-06-04T02:04:38;5.85;;;2.60;;
21036;SDS011;10677;50.942;4.028;2023-06-04T02:07:06;5.20;;;2.15;;
21036;SDS011;10677;50.942;4.028;2023-06-04T02:09:35;7.32;;;2.22;;
21036;SDS011;10677;50.942;4.028;2023-06-04T02:12:01;4.97;;;2.15;;
21036;SDS011;10677;50.942;4.028;2023-06-04T02:14:27;7.35;;;2.10;;
21036;SDS011;10677;50.942;4.028;2023-06-04T02:16:52;4.97;;;1.88;;
21036;SDS011;10677;50.942;4.028;2023-06-04T02:19:23;5.47;;;1.92;;
21036;SDS011;10677;50.942;4.028;2023-06-04T02:21:51;6.68;;;2.20;;
21036;SDS011;10677;50.942;4.028;2023-06-04T02:24:17;6.32;;;1.98;;
21036;SDS011;10677;50.942;4.028;2023-06-04T02:26:43;6.07;;;2.20;;
21036;SDS011;10677;50.942;4.028;2023-06-04T02:29:08;4.28;;;1.92;;
21036;SDS011;10677;50.942;4.028;2023-06-04T02:31:34;4.85;;;2.10;;
21036;SDS011;10677;50.942;4.028;2023-06-04T02:34:00;6.00;;;1.98;;
21036;SDS011;10677;50.942;4.028;2023-06-04T02:36:25;9.63;;;2.58;;
21036;SDS011;10677;50.942;4.028;2023-06-04T02:38:51;8.27;;;2.47;;
21036;SDS011;10677;50.942;4.028;2023-06-04T02:41:17;5.13;;;2.08;;
21036;SDS011;10677;50.942;4.028;2023-06-04T02:43:43;6.22;;;2.28;;
21036;SDS011;10677;50.942;4.028;2023-06-04T02:46:09;5.53;;;2.20;;
21036;SDS011;10677;50.942;4.028;2023-06-04T02:48:34;6.38;;;2.00;;
21036;SDS011;10677;50.942;4.028;2023-06-04T02:51:00;4.22;;;2.08;;
21036;SDS011;10677;50.942;4.028;2023-06-04T02:53:26;10.35;;;3.40;;
21036;SDS011;10677;50.942;4.028;2023-06-04T02:55:51;4.43;;;2.25;;
21036;SDS011;10677;50.942;4.028;2023-06-04T02:58:17;5.22;;;2.08;;
21036;SDS011;10677;50.942;4.028;2023-06-04T03:00:44;5.25;;;2.17;;
21036;SDS011;10677;50.942;4.028;2023-06-04T03:03:10;10.02;;;3.00;;
21036;SDS011;10677;50.942;4.028;2023-06-04T03:05:36;6.45;;;2.20;;
21036;SDS011;10677;50.942;4.028;2023-06-04T03:08:04;5.53;;;2.78;;
21036;SDS011;10677;50.942;4.028;2023-06-04T03:10:30;7.75;;;2.60;;
21036;SDS011;10677;50.942;4.028;2023-06-04T03:12:56;4.72;;;2.45;;
21036;SDS011;10677;50.942;4.028;2023-06-04T03:15:21;5.88;;;2.30;;
21036;SDS011;10677;50.942;4.028;2023-06-04T03:17:47;5.32;;;2.50;;
21036;SDS011;10677;50.942;4.028;2023-06-04T03:20:13;6.28;;;2.45;;
21036;SDS011;10677;50.942;4.028;2023-06-04T03:22:39;7.45;;;2.85;;
21036;SDS011;10677;50.942;4.028;2023-06-04T03:25:05;5.68;;;2.67;;
21036;SDS011;10677;50.942;4.028;2023-06-04T03:27:31;7.13;;;2.80;;
21036;SDS011;10677;50.942;4.028;2023-06-04T03:29:58;6.65;;;2.45;;
21036;SDS011;10677;50.942;4.028;2023-06-04T03:32:23;9.77;;;2.40;;
21036;SDS011;10677;50.942;4.028;2023-06-04T03:34:49;7.28;;;2.70;;
21036;SDS011;10677;50.942;4.028;2023-06-04T03:37:16;7.40;;;2.80;;
21036;SDS011;10677;50.942;4.028;2023-06-04T03:39:42;6.68;;;2.55;;
21036;SDS011;10677;50.942;4.028;2023-06-04T03:42:07;5.38;;;3.05;;
21036;SDS011;10677;50.942;4.028;2023-06-04T03:44:33;7.60;;;2.42;;
21036;SDS011;10677;50.942;4.028;2023-06-04T03:46:59;6.07;;;2.28;;
21036;SDS011;10677;50.942;4.028;2023-06-04T03:49:25;6.47;;;2.95;;
21036;SDS011;10677;50.942;4.028;2023-06-04T03:51:50;8.07;;;2.40;;
21036;SDS011;10677;50.942;4.028;2023-06-04T03:54:16;7.00;;;2.80;;
21036;SDS011;10677;50.942;4.028;2023-06-04T03:56:45;4.93;;;2.60;;
21036;SDS011;10677;50.942;4.028;2023-06-04T03:59:11;5.85;;;2.30;;
21036;SDS011;10677;50.942;4.028;2023-06-04T04:01:37;4.95;;;2.70;;
21036;SDS011;10677;50.942;4.028;2023-06-04T04:04:04;4.68;;;2.45;;
21036;SDS011;10677;50.942;4.028;2023-06-04T04:06:30;6.60;;;3.13;;
21036;SDS011;10677;50.942;4.028;2023-06-04T04:08:55;5.38;;;2.60;;
21036;SDS011;10677;50.942;4.028;2023-06-04T04:11:23;4.88;;;2.33;;
21036;SDS011;10677;50.942;4.028;2023-06-04T04:13:49;6.03;;;3.25;;
21036;SDS011;10677;50.942;4.028;2023-06-04T04:16:14;6.45;;;3.13;;
21036;SDS011;10677;50.942;4.028;2023-06-04T04:18:41;5.95;;;2.50;;
21036;SDS011;10677;50.942;4.028;2023-06-04T04:21:11;3.17;;;2.17;;
21036;SDS011;10677;50.942;4.028;2023-06-04T04:23:40;6.97;;;2.55;;
21036;SDS011;10677;50.942;4.028;2023-06-04T04:26:06;4.80;;;2.45;;
21036;SDS011;10677;50.942;4.028;2023-06-04T04:28:32;5.25;;;2.30;;
21036;SDS011;10677;50.942;4.028;2023-06-04T04:30:59;5.15;;;3.00;;
21036;SDS011;10677;50.942;4.028;2023-06-04T04:33:27;5.32;;;2.63;;
21036;SDS011;10677;50.942;4.028;2023-06-04T04:35:57;5.50;;;2.58;;
21036;SDS011;10677;50.942;4.028;2023-06-04T04:38:24;7.93;;;2.92;;
21036;SDS011;10677;50.942;4.028;2023-06-04T04:40:50;6.65;;;2.72;;
21036;SDS011;10677;50.942;4.028;2023-06-04T04:43:27;8.90;;;2.92;;
21036;SDS011;10677;50.942;4.028;2023-06-04T04:45:58;5.82;;;2.60;;
21036;SDS011;10677;50.942;4.028;2023-06-04T04:48:24;4.82;;;2.17;;
21036;SDS011;10677;50.942;4.028;2023-06-04T04:50:50;8.07;;;2.53;;
21036;SDS011;10677;50.942;4.028;2023-06-04T04:53:16;7.00;;;2.47;;
21036;SDS011;10677;50.942;4.028;2023-06-04T04:55:42;5.57;;;2.35;;
21036;SDS011;10677;50.942;4.028;2023-06-04T04:58:07;6.97;;;2.65;;
21036;SDS011;10677;50.942;4.028;2023-06-04T05:00:33;4.75;;;2.45;;
21036;SDS011;10677;50.942;4.028;2023-06-04T05:02:59;6.25;;;2.88;;
21036;SDS011;10677;50.942;4.028;2023-06-04T05:05:24;4.57;;;2.40;;
21036;SDS011;10677;50.942;4.028;2023-06-04T05:07:50;6.85;;;2.42;;
21036;SDS011;10677;50.942;4.028;2023-06-04T05:10:16;6.53;;;2.60;;
21036;SDS011;10677;50.942;4.028;2023-06-04T05:12:55;5.32;;;2.20;;
21036;SDS011;10677;50.942;4.028;2023-06-04T05:15:22;4.50;;;2.40;;
21036;SDS011;10677;50.942;4.028;2023-06-04T05:17:49;7.35;;;2.50;;
21036;SDS011;10677;50.942;4.028;2023-06-04T05:20:17;5.15;;;2.10;;
21036;SDS011;10677;50.942;4.028;2023-06-04T05:22:44;3.95;;;2.10;;
21036;SDS011;10677;50.942;4.028;2023-06-04T05:25:10;5.40;;;2.35;;
21036;SDS011;10677;50.942;4.028;2023-06-04T05:27:36;5.60;;;2.28;;
21036;SDS011;10677;50.942;4.028;2023-06-04T05:30:02;5.93;;;2.50;;
21036;SDS011;10677;50.942;4.028;2023-06-04T05:32:29;5.30;;;2.70;;
21036;SDS011;10677;50.942;4.028;2023-06-04T05:34:57;6.63;;;2.70;;
21036;SDS011;10677;50.942;4.028;2023-06-04T05:37:26;7.05;;;2.40;;
21036;SDS011;10677;50.942;4.028;2023-06-04T05:39:53;4.93;;;2.25;;
21036;SDS011;10677;50.942;4.028;2023-06-04T05:42:20;3.88;;;2.20;;
21036;SDS011;10677;50.942;4.028;2023-06-04T05:44:46;4.97;;;2.10;;
21036;SDS011;10677;50.942;4.028;2023-06-04T05:47:11;6.78;;;2.38;;
21036;SDS011;10677;50.942;4.028;2023-06-04T05:49:37;5.43;;;2.08;;
21036;SDS011;10677;50.942;4.028;2023-06-04T05:52:03;6.13;;;2.35;;
21036;SDS011;10677;50.942;4.028;2023-06-04T05:54:29;7.10;;;2.33;;
21036;SDS011;10677;50.942;4.028;2023-06-04T05:56:58;6.47;;;2.33;;
21036;SDS011;10677;50.942;4.028;2023-06-04T05:59:23;6.38;;;2.17;;
21036;SDS011;10677;50.942;4.028;2023-06-04T06:01:49;10.32;;;2.60;;
21036;SDS011;10677;50.942;4.028;2023-06-04T06:04:15;12.00;;;2.40;;
21036;SDS011;10677;50.942;4.028;2023-06-04T06:06:41;8.68;;;2.50;;
21036;SDS011;10677;50.942;4.028;2023-06-04T06:09:13;7.63;;;2.75;;
21036;SDS011;10677;50.942;4.028;2023-06-04T06:11:39;5.30;;;2.60;;
21036;SDS011;10677;50.942;4.028;2023-06-04T06:14:05;5.10;;;2.30;;
21036;SDS011;10677;50.942;4.028;2023-06-04T06:16:31;6.47;;;2.33;;
21036;SDS011;10677;50.942;4.028;2023-06-04T06:18:57;4.47;;;2.35;;
21036;SDS011;10677;50.942;4.028;2023-06-04T06:21:23;4.95;;;2.38;;
21036;SDS011;10677;50.942;4.028;2023-06-04T06:23:49;6.47;;;2.05;;
21036;SDS011;10677;50.942;4.028;2023-06-04T06:26:16;6.95;;;2.45;;
21036;SDS011;10677;50.942;4.028;2023-06-04T06:28:42;6.47;;;2.28;;
21036;SDS011;10677;50.942;4.028;2023-06-04T06:31:08;4.05;;;2.00;;
21036;SDS011;10677;50.942;4.028;2023-06-04T06:33:34;4.28;;;2.40;;
21036;SDS011;10677;50.942;4.028;2023-06-04T06:35:59;4.80;;;2.25;;
21036;SDS011;10677;50.942;4.028;2023-06-04T06:38:25;8.07;;;2.22;;
21036;SDS011;10677;50.942;4.028;2023-06-04T06:40:51;5.13;;;2.33;;
21036;SDS011;10677;50.942;4.028;2023-06-04T06:43:17;8.73;;;2.17;;
21036;SDS011;10677;50.942;4.028;2023-06-04T06:45:43;5.53;;;2.35;;
21036;SDS011;10677;50.942;4.028;2023-06-04T06:48:08;4.55;;;2.30;;
21036;SDS011;10677;50.942;4.028;2023-06-04T06:50:34;3.22;;;1.95;;
21036;SDS011;10677;50.942;4.028;2023-06-04T06:53:01;5.28;;;2.65;;
21036;SDS011;10677;50.942;4.028;2023-06-04T06:55:27;4.30;;;2.30;;
21036;SDS011;10677;50.942;4.028;2023-06-04T06:57:53;4.68;;;1.83;;
21036;SDS011;10677;50.942;4.028;2023-06-04T07:00:19;4.57;;;1.90;;
21036;SDS011;10677;50.942;4.028;2023-06-04T07:02:44;5.50;;;1.90;;
21036;SDS011;10677;50.942;4.028;2023-06-04T07:05:10;3.65;;;1.90;;
21036;SDS011;10677;50.942;4.028;2023-06-04T07:07:36;5.07;;;1.80;;
21036;SDS011;10677;50.942;4.028;2023-06-04T07:10:02;4.97;;;1.85;;
21036;SDS011;10677;50.942;4.028;2023-06-04T07:12:29;2.83;;;1.70;;
21036;SDS011;10677;50.942;4.028;2023-06-04T07:14:55;3.95;;;2.05;;
21036;SDS011;10677;50.942;4.028;2023-06-04T07:17:21;6.85;;;1.85;;
21036;SDS011;10677;50.942;4.028;2023-06-04T07:19:47;4.10;;;1.70;;
21036;SDS011;10677;50.942;4.028;2023-06-04T07:22:12;4.32;;;2.03;;
21036;SDS011;10677;50.942;4.028;2023-06-04T07:24:40;4.80;;;1.80;;
21036;SDS011;10677;50.942;4.028;2023-06-04T07:27:10;4.47;;;1.98;;
21036;SDS011;10677;50.942;4.028;2023-06-04T07:29:39;5.07;;;1.80;;
21036;SDS011;10677;50.942;4.028;2023-06-04T07:32:06;3.70;;;1.65;;
21036;SDS011;10677;50.942;4.028;2023-06-04T07:34:32;4.35;;;1.80;;
21036;SDS011;10677;50.942;4.028;2023-06-04T07:36:57;3.65;;;1.63;;
21036;SDS011;10677;50.942;4.028;2023-06-04T07:39:23;2.72;;;1.58;;
21036;SDS011;10677;50.942;4.028;2023-06-04T07:41:49;6.85;;;1.95;;
21036;SDS011;10677;50.942;4.028;2023-06-04T07:44:14;3.92;;;2.05;;
21036;SDS011;10677;50.942;4.028;2023-06-04T07:46:40;5.15;;;1.77;;
21036;SDS011;10677;50.942;4.028;2023-06-04T07:49:06;5.00;;;1.90;;
21036;SDS011;10677;50.942;4.028;2023-06-04T07:51:31;3.40;;;1.55;;
21036;SDS011;10677;50.942;4.028;2023-06-04T07:53:57;4.35;;;1.98;;
21036;SDS011;10677;50.942;4.028;2023-06-04T07:56:23;4.00;;;1.50;;
21036;SDS011;10677;50.942;4.028;2023-06-04T07:58:48;4.68;;;1.98;;
21036;SDS011;10677;50.942;4.028;2023-06-04T08:01:14;3.38;;;1.65;;
21036;SDS011;10677;50.942;4.028;2023-06-04T08:03:40;4.57;;;1.50;;
21036;SDS011;10677;50.942;4.028;2023-06-04T08:06:06;2.95;;;1.20;;
21036;SDS011;10677;50.942;4.028;2023-06-04T08:08:32;5.63;;;1.98;;
21036;SDS011;10677;50.942;4.028;2023-06-04T08:11:00;4.65;;;1.70;;
21036;SDS011;10677;50.942;4.028;2023-06-04T08:13:26;3.47;;;1.75;;
21036;SDS011;10677;50.942;4.028;2023-06-04T08:15:52;5.05;;;1.70;;
21036;SDS011;10677;50.942;4.028;2023-06-04T08:18:17;5.80;;;1.50;;
21036;SDS011;10677;50.942;4.028;2023-06-04T08:20:43;4.75;;;1.73;;
21036;SDS011;10677;50.942;4.028;2023-06-04T08:23:08;6.97;;;1.35;;
21036;SDS011;10677;50.942;4.028;2023-06-04T08:25:34;4.40;;;1.20;;
21036;SDS011;10677;50.942;4.028;2023-06-04T08:28:00;4.82;;;1.55;;
21036;SDS011;10677;50.942;4.028;2023-06-04T08:30:26;2.88;;;1.23;;
21036;SDS011;10677;50.942;4.028;2023-06-04T08:32:52;2.67;;;1.10;;
21036;SDS011;10677;50.942;4.028;2023-06-04T08:35:18;2.20;;;1.10;;
21036;SDS011;10677;50.942;4.028;2023-06-04T08:37:44;4.15;;;1.40;;
21036;SDS011;10677;50.942;4.028;2023-06-04T08:40:10;3.55;;;1.20;;
21036;SDS011;10677;50.942;4.028;2023-06-04T08:42:43;3.88;;;1.33;;
21036;SDS011;10677;50.942;4.028;2023-06-04T08:45:12;2.72;;;1.10;;
21036;SDS011;10677;50.942;4.028;2023-06-04T08:47:41;2.83;;;1.10;;
21036;SDS011;10677;50.942;4.028;2023-06-04T08:50:22;5.28;;;1.13;;
21036;SDS011;10677;50.942;4.028;2023-06-04T08:52:52;3.42;;;1.38;;
21036;SDS011;10677;50.942;4.028;2023-06-04T08:55:19;3.25;;;1.20;;
21036;SDS011;10677;50.942;4.028;2023-06-04T08:57:47;3.20;;;1.23;;
21036;SDS011;10677;50.942;4.028;2023-06-04T09:00:18;2.92;;;1.23;;
21036;SDS011;10677;50.942;4.028;2023-06-04T09:02:45;4.65;;;1.00;;
21036;SDS011;10677;50.942;4.028;2023-06-04T09:05:16;3.05;;;1.08;;
21036;SDS011;10677;50.942;4.028;2023-06-04T09:07:46;4.75;;;1.25;;
21036;SDS011;10677;50.942;4.028;2023-06-04T09:10:15;3.28;;;0.98;;
21036;SDS011;10677;50.942;4.028;2023-06-04T09:12:45;5.22;;;1.20;;
21036;SDS011;10677;50.942;4.028;2023-06-04T09:15:12;2.80;;;0.82;;
21036;SDS011;10677;50.942;4.028;2023-06-04T09:17:38;3.25;;;1.10;;
21036;SDS011;10677;50.942;4.028;2023-06-04T09:20:05;6.70;;;1.20;;
21036;SDS011;10677;50.942;4.028;2023-06-04T09:22:36;2.53;;;0.95;;
21036;SDS011;10677;50.942;4.028;2023-06-04T09:25:06;2.92;;;1.00;;
21036;SDS011;10677;50.942;4.028;2023-06-04T09:27:39;4.47;;;0.90;;
21036;SDS011;10677;50.942;4.028;2023-06-04T09:30:05;2.80;;;0.82;;
21036;SDS011;10677;50.942;4.028;2023-06-04T09:32:33;2.30;;;1.08;;
21036;SDS011;10677;50.942;4.028;2023-06-04T09:35:11;3.53;;;0.80;;
21036;SDS011;10677;50.942;4.028;2023-06-04T09:37:43;4.75;;;1.13;;
21036;SDS011;10677;50.942;4.028;2023-06-04T09:40:22;4.13;;;0.75;;
21036;SDS011;10677;50.942;4.028;2023-06-04T09:42:48;2.63;;;0.70;;
21036;SDS011;10677;50.942;4.028;2023-06-04T09:47:58;5.03;;;1.13;;
21036;SDS011;10677;50.942;4.028;2023-06-04T09:50:28;2.42;;;0.85;;
21036;SDS011;10677;50.942;4.028;2023-06-04T09:52:58;3.72;;;0.95;;
21036;SDS011;10677;50.942;4.028;2023-06-04T09:55:24;7.65;;;1.10;;
21036;SDS011;10677;50.942;4.028;2023-06-04T09:57:50;3.17;;;1.10;;
21036;SDS011;10677;50.942;4.028;2023-06-04T10:00:21;2.10;;;0.77;;
21036;SDS011;10677;50.942;4.028;2023-06-04T10:02:51;3.95;;;1.05;;
21036;SDS011;10677;50.942;4.028;2023-06-04T10:05:22;3.45;;;1.02;;
21036;SDS011;10677;50.942;4.028;2023-06-04T10:07:50;2.13;;;1.00;;
21036;SDS011;10677;50.942;4.028;2023-06-04T10:10:21;3.45;;;1.10;;
21036;SDS011;10677;50.942;4.028;2023-06-04T10:12:52;4.13;;;0.80;;
21036;SDS011;10677;50.942;4.028;2023-06-04T10:15:29;5.47;;;1.10;;
21036;SDS011;10677;50.942;4.028;2023-06-04T10:17:57;3.80;;;1.05;;
21036;SDS011;10677;50.942;4.028;2023-06-04T10:20:23;3.40;;;1.40;;
21036;SDS011;10677;50.942;4.028;2023-06-04T10:22:49;3.08;;;0.90;;
21036;SDS011;10677;50.942;4.028;2023-06-04T10:25:15;2.10;;;0.85;;
21036;SDS011;10677;50.942;4.028;2023-06-04T10:27:42;3.58;;;1.00;;
21036;SDS011;10677;50.942;4.028;2023-06-04T10:30:08;5.18;;;1.00;;
21036;SDS011;10677;50.942;4.028;2023-06-04T10:32:34;2.38;;;1.05;;
21036;SDS011;10677;50.942;4.028;2023-06-04T10:35:06;3.47;;;0.90;;
21036;SDS011;10677;50.942;4.028;2023-06-04T10:37:34;3.25;;;0.90;;
21036;SDS011;10677;50.942;4.028;2023-06-04T10:40:00;4.15;;;0.93;;
21036;SDS011;10677;50.942;4.028;2023-06-04T10:42:25;4.05;;;1.27;;
21036;SDS011;10677;50.942;4.028;2023-06-04T10:45:02;3.03;;;1.17;;
21036;SDS011;10677;50.942;4.028;2023-06-04T10:47:28;4.95;;;1.02;;
21036;SDS011;10677;50.942;4.028;2023-06-04T10:50:05;3.22;;;1.08;;
21036;SDS011;10677;50.942;4.028;2023-06-04T10:52:39;3.05;;;0.88;;
21036;SDS011;10677;50.942;4.028;2023-06-04T10:55:16;4.35;;;1.63;;
21036;SDS011;10677;50.942;4.028;2023-06-04T10:57:54;3.00;;;1.05;;
21036;SDS011;10677;50.942;4.028;2023-06-04T11:00:21;2.55;;;1.00;;
21036;SDS011;10677;50.942;4.028;2023-06-04T11:02:51;4.88;;;1.08;;
21036;SDS011;10677;50.942;4.028;2023-06-04T11:05:21;4.22;;;1.20;;
21036;SDS011;10677;50.942;4.028;2023-06-04T11:07:48;5.43;;;1.13;;
21036;SDS011;10677;50.942;4.028;2023-06-04T11:10:15;1.92;;;0.90;;
21036;SDS011;10677;50.942;4.028;2023-06-04T11:12:45;2.00;;;0.90;;
21036;SDS011;10677;50.942;4.028;2023-06-04T11:15:13;11.30;;;1.25;;
21036;SDS011;10677;50.942;4.028;2023-06-04T11:17:52;5.05;;;0.80;;
21036;SDS011;10677;50.942;4.028;2023-06-04T11:20:21;2.80;;;1.00;;
21036;SDS011;10677;50.942;4.028;2023-06-04T11:22:54;3.50;;;1.20;;
21036;SDS011;10677;50.942;4.028;2023-06-04T11:25:23;3.85;;;0.73;;
21036;SDS011;10677;50.942;4.028;2023-06-04T11:27:51;3.40;;;1.48;;
21036;SDS011;10677;50.942;4.028;2023-06-04T11:30:19;4.03;;;1.17;;
21036;SDS011;10677;50.942;4.028;2023-06-04T11:32:45;3.55;;;0.95;;
21036;SDS011;10677;50.942;4.028;2023-06-04T11:35:11;3.17;;;1.13;;
21036;SDS011;10677;50.942;4.028;2023-06-04T11:37:37;2.70;;;0.70;;
21036;SDS011;10677;50.942;4.028;2023-06-04T11:40:14;3.70;;;1.20;;
21036;SDS011;10677;50.942;4.028;2023-06-04T11:42:44;3.63;;;1.08;;
21036;SDS011;10677;50.942;4.028;2023-06-04T11:45:14;4.15;;;1.17;;
21036;SDS011;10677;50.942;4.028;2023-06-04T11:47:48;2.17;;;0.88;;
21036;SDS011;10677;50.942;4.028;2023-06-04T11:50:18;7.68;;;2.15;;
21036;SDS011;10677;50.942;4.028;2023-06-04T11:52:45;7.05;;;1.30;;
21036;SDS011;10677;50.942;4.028;2023-06-04T11:55:12;4.25;;;0.90;;
21036;SDS011;10677;50.942;4.028;2023-06-04T11:57:38;2.97;;;0.77;;
21036;SDS011;10677;50.942;4.028;2023-06-04T12:00:05;3.53;;;1.20;;
21036;SDS011;10677;50.942;4.028;2023-06-04T12:02:38;3.92;;;1.00;;
21036;SDS011;10677;50.942;4.028;2023-06-04T12:05:16;3.15;;;0.90;;
21036;SDS011;10677;50.942;4.028;2023-06-04T12:07:47;1.80;;;0.75;;
21036;SDS011;10677;50.942;4.028;2023-06-04T12:10:15;1.95;;;0.88;;
21036;SDS011;10677;50.942;4.028;2023-06-04T12:12:42;3.42;;;1.25;;
21036;SDS011;10677;50.942;4.028;2023-06-04T12:15:08;1.85;;;0.90;;
21036;SDS011;10677;50.942;4.028;2023-06-04T12:17:48;3.58;;;1.05;;
21036;SDS011;10677;50.942;4.028;2023-06-04T12:20:16;2.35;;;0.85;;
21036;SDS011;10677;50.942;4.028;2023-06-04T12:22:45;4.95;;;1.00;;
21036;SDS011;10677;50.942;4.028;2023-06-04T12:25:12;3.15;;;1.13;;
21036;SDS011;10677;50.942;4.028;2023-06-04T12:27:48;4.90;;;0.98;;
21036;SDS011;10677;50.942;4.028;2023-06-04T12:30:14;1.85;;;0.80;;
21036;SDS011;10677;50.942;4.028;2023-06-04T12:32:41;9.07;;;1.10;;
21036;SDS011;10677;50.942;4.028;2023-06-04T12:35:07;2.35;;;1.00;;
21036;SDS011;10677;50.942;4.028;2023-06-04T12:37:33;2.03;;;0.80;;
21036;SDS011;10677;50.942;4.028;2023-06-04T12:39:58;4.25;;;1.00;;
21036;SDS011;10677;50.942;4.028;2023-06-04T12:42:24;3.47;;;1.10;;
21036;SDS011;10677;50.942;4.028;2023-06-04T12:44:50;5.75;;;0.98;;
21036;SDS011;10677;50.942;4.028;2023-06-04T12:47:16;1.83;;;1.17;;
21036;SDS011;10677;50.942;4.028;2023-06-04T12:49:42;7.40;;;1.25;;
21036;SDS011;10677;50.942;4.028;2023-06-04T12:52:07;3.90;;;1.17;;
21036;SDS011;10677;50.942;4.028;2023-06-04T12:54:33;3.15;;;1.00;;
21036;SDS011;10677;50.942;4.028;2023-06-04T12:56:59;4.32;;;1.10;;
21036;SDS011;10677;50.942;4.028;2023-06-04T12:59:25;3.50;;;1.48;;
21036;SDS011;10677;50.942;4.028;2023-06-04T13:01:52;5.07;;;1.10;;
21036;SDS011;10677;50.942;4.028;2023-06-04T13:04:18;2.60;;;1.00;;
21036;SDS011;10677;50.942;4.028;2023-06-04T13:06:43;2.50;;;1.17;;
21036;SDS011;10677;50.942;4.028;2023-06-04T13:09:11;2.03;;;0.90;;
21036;SDS011;10677;50.942;4.028;2023-06-04T13:11:38;5.78;;;1.35;;
21036;SDS011;10677;50.942;4.028;2023-06-04T13:14:04;4.00;;;1.30;;
21036;SDS011;10677;50.942;4.028;2023-06-04T13:16:30;4.53;;;1.13;;
21036;SDS011;10677;50.942;4.028;2023-06-04T13:18:56;3.65;;;1.20;;
21036;SDS011;10677;50.942;4.028;2023-06-04T13:21:22;6.18;;;1.58;;
21036;SDS011;10677;50.942;4.028;2023-06-04T13:23:47;2.17;;;1.00;;
21036;SDS011;10677;50.942;4.028;2023-06-04T13:26:14;4.22;;;1.23;;
21036;SDS011;10677;50.942;4.028;2023-06-04T13:28:41;3.30;;;0.90;;
21036;SDS011;10677;50.942;4.028;2023-06-04T13:31:06;3.05;;;1.13;;
21036;SDS011;10677;50.942;4.028;2023-06-04T13:33:32;3.75;;;1.00;;
21036;SDS011;10677;50.942;4.028;2023-06-04T13:35:59;2.78;;;0.95;;
21036;SDS011;10677;50.942;4.028;2023-06-04T13:38:25;1.75;;;1.00;;
21036;SDS011;10677;50.942;4.028;2023-06-04T13:40:51;2.03;;;0.90;;
21036;SDS011;10677;50.942;4.028;2023-06-04T13:43:17;2.83;;;1.17;;
21036;SDS011;10677;50.942;4.028;2023-06-04T13:45:43;3.67;;;1.25;;
21036;SDS011;10677;50.942;4.028;2023-06-04T13:48:10;1.95;;;1.10;;
21036;SDS011;10677;50.942;4.028;2023-06-04T13:50:37;3.25;;;0.90;;
21036;SDS011;10677;50.942;4.028;2023-06-04T13:53:02;3.55;;;1.20;;
21036;SDS011;10677;50.942;4.028;2023-06-04T13:55:28;2.30;;;1.00;;
21036;SDS011;10677;50.942;4.028;2023-06-04T13:57:54;5.05;;;1.42;;
21036;SDS011;10677;50.942;4.028;2023-06-04T14:00:20;2.65;;;1.40;;
21036;SDS011;10677;50.942;4.028;2023-06-04T14:02:47;2.45;;;1.25;;
21036;SDS011;10677;50.942;4.028;2023-06-04T14:05:13;4.45;;;1.40;;
21036;SDS011;10677;50.942;4.028;2023-06-04T14:07:41;5.47;;;1.27;;
21036;SDS011;10677;50.942;4.028;2023-06-04T14:10:08;2.60;;;1.13;;
21036;SDS011;10677;50.942;4.028;2023-06-04T14:12:35;2.78;;;1.00;;
21036;SDS011;10677;50.942;4.028;2023-06-04T14:15:02;2.83;;;1.10;;
21036;SDS011;10677;50.942;4.028;2023-06-04T14:17:28;6.13;;;1.20;;
21036;SDS011;10677;50.942;4.028;2023-06-04T14:19:53;2.60;;;1.27;;
21036;SDS011;10677;50.942;4.028;2023-06-04T14:22:19;4.90;;;1.35;;
21036;SDS011;10677;50.942;4.028;2023-06-04T14:24:45;2.05;;;1.08;;
21036;SDS011;10677;50.942;4.028;2023-06-04T14:27:11;4.30;;;1.33;;
21036;SDS011;10677;50.942;4.028;2023-06-04T14:29:36;5.25;;;1.52;;
21036;SDS011;10677;50.942;4.028;2023-06-04T14:32:03;3.75;;;0.93;;
21036;SDS011;10677;50.942;4.028;2023-06-04T14:34:29;2.47;;;1.00;;
21036;SDS011;10677;50.942;4.028;2023-06-04T14:36:57;3.75;;;1.20;;
21036;SDS011;10677;50.942;4.028;2023-06-04T14:39:24;5.97;;;1.30;;
21036;SDS011;10677;50.942;4.028;2023-06-04T14:41:53;2.63;;;1.23;;
21036;SDS011;10677;50.942;4.028;2023-06-04T14:44:19;5.13;;;1.50;;
21036;SDS011;10677;50.942;4.028;2023-06-04T14:46:46;2.85;;;1.50;;
21036;SDS011;10677;50.942;4.028;2023-06-04T14:49:12;3.95;;;1.27;;
21036;SDS011;10677;50.942;4.028;2023-06-04T14:51:38;2.05;;;1.00;;
21036;SDS011;10677;50.942;4.028;2023-06-04T14:54:03;3.13;;;1.20;;
21036;SDS011;10677;50.942;4.028;2023-06-04T14:56:29;1.70;;;1.00;;
21036;SDS011;10677;50.942;4.028;2023-06-04T14:58:55;3.40;;;1.13;;
21036;SDS011;10677;50.942;4.028;2023-06-04T15:01:21;4.32;;;1.33;;